sensor_id;sensor_type;location;lat;lon;timestamp;P1;durP1;ratioP1;P2;durP2;ratioP2
51010;SDS011;37038;50.182;8.624;2023-03-01T00:01:57;30.15;;;19.58;;
51010;SDS011;37038;50.182;8.624;2023-03-01T00:04:45;28.33;;;19.35;;
51010;SDS011;37038;50.182;8.624;2023-03-01T00:07:33;25.80;;;18.20;;
51010;SDS011;37038;50.182;8.624;2023-03-01T00:10:20;28.90;;;18.98;;
51010;SDS011;37038;50.182;8.624;2023-03-01T00:13:08;26.88;;;18.60;;
51010;SDS011;37038;50.182;8.624;2023-03-01T00:15:55;27.83;;;18.98;;
51010;SDS011;37038;50.182;8.624;2023-03-01T00:18:43;27.25;;;19.90;;
51010;SDS011;37038;50.182;8.624;2023-03-01T00:21:31;29.65;;;18.75;;
51010;SDS011;37038;50.182;8.624;2023-03-01T00:24:19;28.70;;;18.70;;
51010;SDS011;37038;50.182;8.624;2023-03-01T00:27:06;25.38;;;18.77;;
51010;SDS011;37038;50.182;8.624;2023-03-01T00:29:54;26.05;;;19.30;;
51010;SDS011;37038;50.182;8.624;2023-03-01T00:32:42;26.75;;;19.42;;
51010;SDS011;37038;50.182;8.624;2023-03-01T00:35:31;27.75;;;18.75;;
51010;SDS011;37038;50.182;8.624;2023-03-01T00:38:20;33.50;;;20.40;;
51010;SDS011;37038;50.182;8.624;2023-03-01T00:41:09;29.85;;;19.98;;
51010;SDS011;37038;50.182;8.624;2023-03-01T00:43:58;30.83;;;20.30;;
51010;SDS011;37038;50.182;8.624;2023-03-01T00:46:46;28.20;;;18.67;;
51010;SDS011;37038;50.182;8.624;2023-03-01T00:49:33;29.75;;;20.35;;
51010;SDS011;37038;50.182;8.624;2023-03-01T00:52:21;33.05;;;20.25;;
51010;SDS011;37038;50.182;8.624;2023-03-01T00:55:09;30.10;;;20.60;;
51010;SDS011;37038;50.182;8.624;2023-03-01T00:57:57;32.10;;;20.23;;
51010;SDS011;37038;50.182;8.624;2023-03-01T01:00:45;34.13;;;20.48;;
51010;SDS011;37038;50.182;8.624;2023-03-01T01:03:32;32.88;;;21.05;;
51010;SDS011;37038;50.182;8.624;2023-03-01T01:06:21;28.00;;;18.67;;
51010;SDS011;37038;50.182;8.624;2023-03-01T01:09:15;33.58;;;19.45;;
51010;SDS011;37038;50.182;8.624;2023-03-01T01:12:04;30.42;;;20.45;;
51010;SDS011;37038;50.182;8.624;2023-03-01T01:14:52;29.77;;;19.75;;
51010;SDS011;37038;50.182;8.624;2023-03-01T01:17:42;30.20;;;19.38;;
51010;SDS011;37038;50.182;8.624;2023-03-01T01:20:30;31.15;;;20.67;;
51010;SDS011;37038;50.182;8.624;2023-03-01T01:23:18;31.98;;;20.75;;
51010;SDS011;37038;50.182;8.624;2023-03-01T01:26:13;32.65;;;20.60;;
51010;SDS011;37038;50.182;8.624;2023-03-01T01:29:07;32.72;;;20.90;;
51010;SDS011;37038;50.182;8.624;2023-03-01T01:31:55;31.90;;;20.92;;
51010;SDS011;37038;50.182;8.624;2023-03-01T01:34:42;30.48;;;20.63;;
51010;SDS011;37038;50.182;8.624;2023-03-01T01:37:30;33.55;;;21.30;;
51010;SDS011;37038;50.182;8.624;2023-03-01T01:40:18;30.98;;;21.13;;
51010;SDS011;37038;50.182;8.624;2023-03-01T01:43:08;32.78;;;21.08;;
51010;SDS011;37038;50.182;8.624;2023-03-01T01:46:06;29.98;;;20.33;;
51010;SDS011;37038;50.182;8.624;2023-03-01T01:55:10;29.30;;;20.65;;
51010;SDS011;37038;50.182;8.624;2023-03-01T01:58:03;28.13;;;20.48;;
51010;SDS011;37038;50.182;8.624;2023-03-01T02:00:53;29.17;;;20.65;;
51010;SDS011;37038;50.182;8.624;2023-03-01T02:03:42;30.73;;;19.95;;
51010;SDS011;37038;50.182;8.624;2023-03-01T02:06:39;31.25;;;20.23;;
51010;SDS011;37038;50.182;8.624;2023-03-01T02:09:33;32.72;;;20.83;;
51010;SDS011;37038;50.182;8.624;2023-03-01T02:12:23;30.52;;;19.95;;
51010;SDS011;37038;50.182;8.624;2023-03-01T02:15:11;31.45;;;20.77;;
51010;SDS011;37038;50.182;8.624;2023-03-01T02:17:59;34.75;;;20.13;;
51010;SDS011;37038;50.182;8.624;2023-03-01T02:20:58;29.13;;;20.17;;
51010;SDS011;37038;50.182;8.624;2023-03-01T02:24:01;31.25;;;19.73;;
51010;SDS011;37038;50.182;8.624;2023-03-01T02:26:57;27.38;;;19.23;;
51010;SDS011;37038;50.182;8.624;2023-03-01T02:29:47;32.97;;;21.52;;
51010;SDS011;37038;50.182;8.624;2023-03-01T02:32:34;28.25;;;19.58;;
51010;SDS011;37038;50.182;8.624;2023-03-01T02:35:24;26.10;;;19.90;;
51010;SDS011;37038;50.182;8.624;2023-03-01T02:38:11;33.08;;;21.17;;
51010;SDS011;37038;50.182;8.624;2023-03-01T02:41:00;31.65;;;20.55;;
51010;SDS011;37038;50.182;8.624;2023-03-01T02:43:51;33.42;;;21.73;;
51010;SDS011;37038;50.182;8.624;2023-03-01T02:46:43;32.67;;;20.95;;
51010;SDS011;37038;50.182;8.624;2023-03-01T02:49:35;30.40;;;20.88;;
51010;SDS011;37038;50.182;8.624;2023-03-01T02:52:44;29.50;;;20.85;;
51010;SDS011;37038;50.182;8.624;2023-03-01T02:55:36;30.23;;;20.77;;
51010;SDS011;37038;50.182;8.624;2023-03-01T02:58:23;32.15;;;21.30;;
51010;SDS011;37038;50.182;8.624;2023-03-01T03:01:12;36.03;;;21.65;;
51010;SDS011;37038;50.182;8.624;2023-03-01T03:04:07;31.42;;;21.42;;
51010;SDS011;37038;50.182;8.624;2023-03-01T03:06:57;33.08;;;22.02;;
51010;SDS011;37038;50.182;8.624;2023-03-01T03:09:47;33.47;;;22.65;;
51010;SDS011;37038;50.182;8.624;2023-03-01T03:12:34;30.85;;;20.73;;
51010;SDS011;37038;50.182;8.624;2023-03-01T03:15:22;33.15;;;22.20;;
51010;SDS011;37038;50.182;8.624;2023-03-01T03:18:12;32.40;;;21.05;;
51010;SDS011;37038;50.182;8.624;2023-03-01T03:21:02;30.88;;;21.42;;
51010;SDS011;37038;50.182;8.624;2023-03-01T03:23:49;32.28;;;22.83;;
51010;SDS011;37038;50.182;8.624;2023-03-01T03:26:37;32.88;;;21.75;;
51010;SDS011;37038;50.182;8.624;2023-03-01T03:29:25;33.20;;;22.00;;
51010;SDS011;37038;50.182;8.624;2023-03-01T03:32:12;34.72;;;21.23;;
51010;SDS011;37038;50.182;8.624;2023-03-01T03:35:00;32.28;;;21.58;;
51010;SDS011;37038;50.182;8.624;2023-03-01T03:37:48;30.65;;;21.75;;
51010;SDS011;37038;50.182;8.624;2023-03-01T03:40:49;33.00;;;21.85;;
51010;SDS011;37038;50.182;8.624;2023-03-01T03:43:39;34.30;;;21.48;;
51010;SDS011;37038;50.182;8.624;2023-03-01T03:46:29;33.88;;;21.95;;
51010;SDS011;37038;50.182;8.624;2023-03-01T03:49:17;36.10;;;23.30;;
51010;SDS011;37038;50.182;8.624;2023-03-01T03:52:05;34.70;;;23.15;;
51010;SDS011;37038;50.182;8.624;2023-03-01T03:55:00;40.65;;;25.17;;
51010;SDS011;37038;50.182;8.624;2023-03-01T03:57:48;36.80;;;22.90;;
51010;SDS011;37038;50.182;8.624;2023-03-01T04:00:41;33.40;;;22.83;;
51010;SDS011;37038;50.182;8.624;2023-03-01T04:03:30;42.50;;;23.52;;
51010;SDS011;37038;50.182;8.624;2023-03-01T04:06:19;37.13;;;23.25;;
51010;SDS011;37038;50.182;8.624;2023-03-01T04:09:07;37.92;;;24.17;;
51010;SDS011;37038;50.182;8.624;2023-03-01T04:11:54;35.30;;;22.52;;
51010;SDS011;37038;50.182;8.624;2023-03-01T04:14:42;34.75;;;23.42;;
51010;SDS011;37038;50.182;8.624;2023-03-01T04:17:30;34.92;;;22.98;;
51010;SDS011;37038;50.182;8.624;2023-03-01T04:20:18;34.10;;;23.30;;
51010;SDS011;37038;50.182;8.624;2023-03-01T04:23:19;40.08;;;23.95;;
51010;SDS011;37038;50.182;8.624;2023-03-01T04:26:07;38.75;;;23.63;;
51010;SDS011;37038;50.182;8.624;2023-03-01T04:28:55;37.88;;;25.33;;
51010;SDS011;37038;50.182;8.624;2023-03-01T04:31:43;37.55;;;23.58;;
51010;SDS011;37038;50.182;8.624;2023-03-01T04:34:31;38.25;;;24.90;;
51010;SDS011;37038;50.182;8.624;2023-03-01T04:37:18;37.45;;;23.60;;
51010;SDS011;37038;50.182;8.624;2023-03-01T04:40:06;35.95;;;23.90;;
51010;SDS011;37038;50.182;8.624;2023-03-01T04:43:03;37.03;;;23.45;;
51010;SDS011;37038;50.182;8.624;2023-03-01T04:45:51;37.92;;;24.23;;
51010;SDS011;37038;50.182;8.624;2023-03-01T04:48:40;36.83;;;23.73;;
51010;SDS011;37038;50.182;8.624;2023-03-01T04:51:28;35.85;;;23.35;;
51010;SDS011;37038;50.182;8.624;2023-03-01T04:54:16;34.33;;;22.42;;
51010;SDS011;37038;50.182;8.624;2023-03-01T04:57:04;39.42;;;24.48;;
51010;SDS011;37038;50.182;8.624;2023-03-01T04:59:54;39.97;;;23.70;;
51010;SDS011;37038;50.182;8.624;2023-03-01T05:02:42;38.78;;;24.13;;
51010;SDS011;37038;50.182;8.624;2023-03-01T05:05:34;37.58;;;24.40;;
51010;SDS011;37038;50.182;8.624;2023-03-01T05:08:24;37.10;;;24.45;;
51010;SDS011;37038;50.182;8.624;2023-03-01T05:11:13;33.40;;;22.83;;
51010;SDS011;37038;50.182;8.624;2023-03-01T05:14:02;38.17;;;22.75;;
51010;SDS011;37038;50.182;8.624;2023-03-01T05:16:50;37.13;;;25.55;;
51010;SDS011;37038;50.182;8.624;2023-03-01T05:19:38;37.13;;;23.05;;
51010;SDS011;37038;50.182;8.624;2023-03-01T05:22:25;35.90;;;22.42;;
51010;SDS011;37038;50.182;8.624;2023-03-01T05:25:14;32.65;;;22.02;;
51010;SDS011;37038;50.182;8.624;2023-03-01T05:28:02;35.40;;;22.33;;
51010;SDS011;37038;50.182;8.624;2023-03-01T05:30:51;37.83;;;23.70;;
51010;SDS011;37038;50.182;8.624;2023-03-01T05:33:40;34.17;;;21.77;;
51010;SDS011;37038;50.182;8.624;2023-03-01T05:36:28;34.28;;;21.48;;
51010;SDS011;37038;50.182;8.624;2023-03-01T05:39:16;38.63;;;23.35;;
51010;SDS011;37038;50.182;8.624;2023-03-01T05:42:04;34.35;;;22.88;;
51010;SDS011;37038;50.182;8.624;2023-03-01T05:44:51;39.42;;;22.00;;
51010;SDS011;37038;50.182;8.624;2023-03-01T05:47:41;34.83;;;22.02;;
51010;SDS011;37038;50.182;8.624;2023-03-01T05:50:35;38.50;;;23.20;;
51010;SDS011;37038;50.182;8.624;2023-03-01T05:53:24;41.88;;;23.50;;
51010;SDS011;37038;50.182;8.624;2023-03-01T05:56:13;39.63;;;22.27;;
51010;SDS011;37038;50.182;8.624;2023-03-01T05:59:01;35.88;;;23.33;;
51010;SDS011;37038;50.182;8.624;2023-03-01T06:01:49;32.05;;;21.90;;
51010;SDS011;37038;50.182;8.624;2023-03-01T06:04:37;37.67;;;22.95;;
51010;SDS011;37038;50.182;8.624;2023-03-01T06:07:25;41.88;;;24.60;;
51010;SDS011;37038;50.182;8.624;2023-03-01T06:10:12;37.47;;;23.88;;
51010;SDS011;37038;50.182;8.624;2023-03-01T06:13:01;37.30;;;22.50;;
51010;SDS011;37038;50.182;8.624;2023-03-01T06:15:48;37.53;;;23.13;;
51010;SDS011;37038;50.182;8.624;2023-03-01T06:18:37;37.25;;;23.13;;
51010;SDS011;37038;50.182;8.624;2023-03-01T06:21:26;35.72;;;22.75;;
51010;SDS011;37038;50.182;8.624;2023-03-01T06:24:14;33.22;;;21.35;;
51010;SDS011;37038;50.182;8.624;2023-03-01T06:27:01;37.35;;;23.70;;
51010;SDS011;37038;50.182;8.624;2023-03-01T06:29:49;37.08;;;24.27;;
51010;SDS011;37038;50.182;8.624;2023-03-01T06:32:37;40.50;;;24.80;;
51010;SDS011;37038;50.182;8.624;2023-03-01T06:35:29;36.25;;;23.83;;
51010;SDS011;37038;50.182;8.624;2023-03-01T06:38:17;40.00;;;23.52;;
51010;SDS011;37038;50.182;8.624;2023-03-01T06:41:05;35.83;;;23.38;;
51010;SDS011;37038;50.182;8.624;2023-03-01T06:43:53;36.92;;;24.83;;
51010;SDS011;37038;50.182;8.624;2023-03-01T06:46:41;33.67;;;23.02;;
51010;SDS011;37038;50.182;8.624;2023-03-01T06:49:29;33.72;;;22.80;;
51010;SDS011;37038;50.182;8.624;2023-03-01T06:52:17;34.92;;;23.65;;
51010;SDS011;37038;50.182;8.624;2023-03-01T06:55:05;34.55;;;23.80;;
51010;SDS011;37038;50.182;8.624;2023-03-01T06:57:54;34.70;;;23.45;;
51010;SDS011;37038;50.182;8.624;2023-03-01T07:00:43;34.53;;;23.55;;
51010;SDS011;37038;50.182;8.624;2023-03-01T07:03:31;36.63;;;23.63;;
51010;SDS011;37038;50.182;8.624;2023-03-01T07:06:19;35.42;;;23.05;;
51010;SDS011;37038;50.182;8.624;2023-03-01T07:09:09;36.15;;;22.25;;
51010;SDS011;37038;50.182;8.624;2023-03-01T07:12:00;34.20;;;22.83;;
51010;SDS011;37038;50.182;8.624;2023-03-01T07:14:49;34.05;;;21.88;;
51010;SDS011;37038;50.182;8.624;2023-03-01T07:17:36;36.10;;;23.60;;
51010;SDS011;37038;50.182;8.624;2023-03-01T07:20:24;32.33;;;24.20;;
51010;SDS011;37038;50.182;8.624;2023-03-01T07:23:12;30.85;;;21.88;;
51010;SDS011;37038;50.182;8.624;2023-03-01T07:26:00;34.40;;;24.27;;
51010;SDS011;37038;50.182;8.624;2023-03-01T07:28:48;35.40;;;22.90;;
51010;SDS011;37038;50.182;8.624;2023-03-01T07:31:38;32.83;;;21.40;;
51010;SDS011;37038;50.182;8.624;2023-03-01T07:34:26;30.17;;;20.58;;
51010;SDS011;37038;50.182;8.624;2023-03-01T07:37:14;35.42;;;23.13;;
51010;SDS011;37038;50.182;8.624;2023-03-01T07:40:01;35.55;;;23.30;;
51010;SDS011;37038;50.182;8.624;2023-03-01T07:42:56;35.45;;;23.25;;
51010;SDS011;37038;50.182;8.624;2023-03-01T07:45:47;30.00;;;22.83;;
51010;SDS011;37038;50.182;8.624;2023-03-01T07:48:50;28.15;;;21.02;;
51010;SDS011;37038;50.182;8.624;2023-03-01T07:51:51;29.27;;;21.15;;
51010;SDS011;37038;50.182;8.624;2023-03-01T07:55:06;30.98;;;21.40;;
51010;SDS011;37038;50.182;8.624;2023-03-01T07:58:04;29.75;;;22.13;;
51010;SDS011;37038;50.182;8.624;2023-03-01T08:00:52;33.40;;;22.75;;
51010;SDS011;37038;50.182;8.624;2023-03-01T08:03:40;30.98;;;23.08;;
51010;SDS011;37038;50.182;8.624;2023-03-01T08:06:31;30.88;;;21.45;;
51010;SDS011;37038;50.182;8.624;2023-03-01T08:09:22;36.40;;;23.27;;
51010;SDS011;37038;50.182;8.624;2023-03-01T08:12:10;30.23;;;22.23;;
51010;SDS011;37038;50.182;8.624;2023-03-01T08:14:58;30.75;;;21.50;;
51010;SDS011;37038;50.182;8.624;2023-03-01T08:17:48;29.85;;;21.30;;
51010;SDS011;37038;50.182;8.624;2023-03-01T08:20:37;27.92;;;20.80;;
51010;SDS011;37038;50.182;8.624;2023-03-01T08:23:25;31.85;;;22.70;;
51010;SDS011;37038;50.182;8.624;2023-03-01T08:26:15;32.70;;;22.92;;
51010;SDS011;37038;50.182;8.624;2023-03-01T08:29:07;31.52;;;21.48;;
51010;SDS011;37038;50.182;8.624;2023-03-01T08:31:55;26.25;;;19.98;;
51010;SDS011;37038;50.182;8.624;2023-03-01T08:34:46;30.35;;;21.00;;
51010;SDS011;37038;50.182;8.624;2023-03-01T08:37:34;32.22;;;21.83;;
51010;SDS011;37038;50.182;8.624;2023-03-01T08:40:25;32.50;;;21.95;;
51010;SDS011;37038;50.182;8.624;2023-03-01T08:46:08;27.20;;;21.65;;
51010;SDS011;37038;50.182;8.624;2023-03-01T08:48:59;30.75;;;22.25;;
51010;SDS011;37038;50.182;8.624;2023-03-01T08:51:47;27.52;;;20.42;;
51010;SDS011;37038;50.182;8.624;2023-03-01T08:54:35;26.58;;;20.67;;
51010;SDS011;37038;50.182;8.624;2023-03-01T08:57:23;27.00;;;20.25;;
51010;SDS011;37038;50.182;8.624;2023-03-01T09:00:11;27.75;;;19.65;;
51010;SDS011;37038;50.182;8.624;2023-03-01T09:03:05;25.00;;;20.50;;
51010;SDS011;37038;50.182;8.624;2023-03-01T09:05:59;28.83;;;21.95;;
51010;SDS011;37038;50.182;8.624;2023-03-01T09:08:49;25.10;;;20.15;;
51010;SDS011;37038;50.182;8.624;2023-03-01T09:11:38;25.15;;;20.52;;
51010;SDS011;37038;50.182;8.624;2023-03-01T09:14:28;23.83;;;19.52;;
51010;SDS011;37038;50.182;8.624;2023-03-01T09:17:16;28.00;;;20.77;;
51010;SDS011;37038;50.182;8.624;2023-03-01T09:20:05;28.00;;;20.15;;
51010;SDS011;37038;50.182;8.624;2023-03-01T09:22:55;28.33;;;20.05;;
51010;SDS011;37038;50.182;8.624;2023-03-01T09:25:43;27.33;;;19.98;;
51010;SDS011;37038;50.182;8.624;2023-03-01T09:28:31;26.92;;;20.88;;
51010;SDS011;37038;50.182;8.624;2023-03-01T09:31:21;25.58;;;20.13;;
51010;SDS011;37038;50.182;8.624;2023-03-01T09:34:10;25.40;;;19.85;;
51010;SDS011;37038;50.182;8.624;2023-03-01T09:37:03;25.70;;;20.42;;
51010;SDS011;37038;50.182;8.624;2023-03-01T09:39:53;24.63;;;19.42;;
51010;SDS011;37038;50.182;8.624;2023-03-01T09:42:50;24.88;;;19.50;;
51010;SDS011;37038;50.182;8.624;2023-03-01T09:45:49;29.25;;;21.13;;
51010;SDS011;37038;50.182;8.624;2023-03-01T09:48:44;23.40;;;19.02;;
51010;SDS011;37038;50.182;8.624;2023-03-01T09:51:37;25.80;;;18.95;;
51010;SDS011;37038;50.182;8.624;2023-03-01T09:54:26;26.02;;;20.35;;
51010;SDS011;37038;50.182;8.624;2023-03-01T09:57:28;22.17;;;19.52;;
51010;SDS011;37038;50.182;8.624;2023-03-01T10:00:28;23.95;;;19.30;;
51010;SDS011;37038;50.182;8.624;2023-03-01T10:03:43;25.10;;;20.25;;
51010;SDS011;37038;50.182;8.624;2023-03-01T10:06:43;28.42;;;20.00;;
51010;SDS011;37038;50.182;8.624;2023-03-01T10:09:38;26.35;;;19.70;;
51010;SDS011;37038;50.182;8.624;2023-03-01T10:12:36;25.73;;;19.92;;
51010;SDS011;37038;50.182;8.624;2023-03-01T10:15:34;26.00;;;20.20;;
51010;SDS011;37038;50.182;8.624;2023-03-01T10:18:27;25.88;;;19.58;;
51010;SDS011;37038;50.182;8.624;2023-03-01T10:21:18;23.15;;;19.00;;
51010;SDS011;37038;50.182;8.624;2023-03-01T10:24:11;25.83;;;19.20;;
51010;SDS011;37038;50.182;8.624;2023-03-01T10:27:02;25.48;;;19.20;;
51010;SDS011;37038;50.182;8.624;2023-03-01T10:33:01;24.33;;;18.92;;
51010;SDS011;37038;50.182;8.624;2023-03-01T10:35:50;25.77;;;19.25;;
51010;SDS011;37038;50.182;8.624;2023-03-01T10:38:54;26.17;;;20.73;;
51010;SDS011;37038;50.182;8.624;2023-03-01T10:44:46;22.98;;;18.67;;
51010;SDS011;37038;50.182;8.624;2023-03-01T10:47:35;23.88;;;20.27;;
51010;SDS011;37038;50.182;8.624;2023-03-01T10:50:23;22.52;;;18.50;;
51010;SDS011;37038;50.182;8.624;2023-03-01T10:53:31;22.08;;;19.13;;
51010;SDS011;37038;50.182;8.624;2023-03-01T10:56:25;23.70;;;18.73;;
51010;SDS011;37038;50.182;8.624;2023-03-01T10:59:19;23.77;;;18.88;;
51010;SDS011;37038;50.182;8.624;2023-03-01T11:02:30;21.92;;;18.55;;
51010;SDS011;37038;50.182;8.624;2023-03-01T11:05:22;22.63;;;17.38;;
51010;SDS011;37038;50.182;8.624;2023-03-01T11:08:11;22.25;;;18.48;;
51010;SDS011;37038;50.182;8.624;2023-03-01T11:14:15;24.65;;;18.80;;
51010;SDS011;37038;50.182;8.624;2023-03-01T11:17:24;24.90;;;17.80;;
51010;SDS011;37038;50.182;8.624;2023-03-01T11:23:16;21.52;;;18.70;;
51010;SDS011;37038;50.182;8.624;2023-03-01T11:26:05;22.98;;;18.23;;
51010;SDS011;37038;50.182;8.624;2023-03-01T11:29:00;21.88;;;17.52;;
51010;SDS011;37038;50.182;8.624;2023-03-01T11:31:54;19.05;;;16.95;;
51010;SDS011;37038;50.182;8.624;2023-03-01T11:34:53;19.98;;;17.23;;
51010;SDS011;37038;50.182;8.624;2023-03-01T11:59:02;20.55;;;16.63;;
51010;SDS011;37038;50.182;8.624;2023-03-01T12:08:40;20.73;;;16.23;;
51010;SDS011;37038;50.182;8.624;2023-03-01T12:18:38;19.23;;;15.50;;
51010;SDS011;37038;50.182;8.624;2023-03-01T12:25:10;17.48;;;14.32;;
51010;SDS011;37038;50.182;8.624;2023-03-01T12:50:55;17.05;;;13.55;;
51010;SDS011;37038;50.182;8.624;2023-03-01T12:53:51;15.60;;;12.95;;
51010;SDS011;37038;50.182;8.624;2023-03-01T12:56:46;18.90;;;14.52;;
51010;SDS011;37038;50.182;8.624;2023-03-01T12:59:41;16.02;;;13.77;;
51010;SDS011;37038;50.182;8.624;2023-03-01T13:02:44;18.20;;;14.15;;
51010;SDS011;37038;50.182;8.624;2023-03-01T13:17:29;14.52;;;12.98;;
51010;SDS011;37038;50.182;8.624;2023-03-01T13:20:21;18.10;;;13.80;;
51010;SDS011;37038;50.182;8.624;2023-03-01T13:26:13;17.03;;;13.43;;
51010;SDS011;37038;50.182;8.624;2023-03-01T13:29:11;15.00;;;12.90;;
51010;SDS011;37038;50.182;8.624;2023-03-01T13:32:26;14.93;;;13.32;;
51010;SDS011;37038;50.182;8.624;2023-03-01T13:35:52;13.93;;;12.38;;
51010;SDS011;37038;50.182;8.624;2023-03-01T13:41:51;15.80;;;12.35;;
51010;SDS011;37038;50.182;8.624;2023-03-01T13:44:41;15.10;;;12.77;;
51010;SDS011;37038;50.182;8.624;2023-03-01T13:47:30;15.65;;;13.27;;
51010;SDS011;37038;50.182;8.624;2023-03-01T13:50:25;15.18;;;12.65;;
51010;SDS011;37038;50.182;8.624;2023-03-01T13:53:21;16.60;;;13.75;;
51010;SDS011;37038;50.182;8.624;2023-03-01T13:59:15;15.00;;;12.77;;
51010;SDS011;37038;50.182;8.624;2023-03-01T14:02:11;16.48;;;13.95;;
51010;SDS011;37038;50.182;8.624;2023-03-01T14:05:02;17.55;;;13.27;;
51010;SDS011;37038;50.182;8.624;2023-03-01T14:07:51;15.35;;;12.77;;
51010;SDS011;37038;50.182;8.624;2023-03-01T14:10:49;17.75;;;14.00;;
51010;SDS011;37038;50.182;8.624;2023-03-01T14:23:10;16.38;;;12.90;;
51010;SDS011;37038;50.182;8.624;2023-03-01T14:26:04;16.05;;;13.07;;
51010;SDS011;37038;50.182;8.624;2023-03-01T14:28:55;15.20;;;12.70;;
51010;SDS011;37038;50.182;8.624;2023-03-01T14:31:45;16.55;;;13.00;;
51010;SDS011;37038;50.182;8.624;2023-03-01T14:34:46;19.45;;;14.30;;
51010;SDS011;37038;50.182;8.624;2023-03-01T14:37:40;17.25;;;13.13;;
51010;SDS011;37038;50.182;8.624;2023-03-01T14:40:28;18.35;;;14.50;;
51010;SDS011;37038;50.182;8.624;2023-03-01T14:43:19;20.45;;;14.90;;
51010;SDS011;37038;50.182;8.624;2023-03-01T14:46:21;18.13;;;12.95;;
51010;SDS011;37038;50.182;8.624;2023-03-01T14:49:19;15.77;;;13.38;;
51010;SDS011;37038;50.182;8.624;2023-03-01T14:55:33;16.83;;;13.40;;
51010;SDS011;37038;50.182;8.624;2023-03-01T14:58:24;16.95;;;13.13;;
51010;SDS011;37038;50.182;8.624;2023-03-01T15:01:13;18.20;;;13.80;;
51010;SDS011;37038;50.182;8.624;2023-03-01T15:04:04;19.20;;;13.55;;
51010;SDS011;37038;50.182;8.624;2023-03-01T15:06:54;14.85;;;12.38;;
51010;SDS011;37038;50.182;8.624;2023-03-01T15:09:55;15.32;;;12.15;;
51010;SDS011;37038;50.182;8.624;2023-03-01T15:12:50;15.13;;;12.27;;
51010;SDS011;37038;50.182;8.624;2023-03-01T15:15:45;16.08;;;12.15;;
51010;SDS011;37038;50.182;8.624;2023-03-01T15:18:35;16.00;;;11.27;;
51010;SDS011;37038;50.182;8.624;2023-03-01T15:21:29;15.00;;;11.80;;
51010;SDS011;37038;50.182;8.624;2023-03-01T15:24:24;15.02;;;12.07;;
51010;SDS011;37038;50.182;8.624;2023-03-01T15:27:24;17.48;;;12.07;;
51010;SDS011;37038;50.182;8.624;2023-03-01T15:30:17;15.88;;;12.15;;
51010;SDS011;37038;50.182;8.624;2023-03-01T15:36:32;15.23;;;12.30;;
51010;SDS011;37038;50.182;8.624;2023-03-01T15:45:31;17.38;;;13.00;;
51010;SDS011;37038;50.182;8.624;2023-03-01T15:48:26;18.35;;;13.60;;
51010;SDS011;37038;50.182;8.624;2023-03-01T15:51:17;19.25;;;13.40;;
51010;SDS011;37038;50.182;8.624;2023-03-01T15:54:18;18.25;;;13.48;;
51010;SDS011;37038;50.182;8.624;2023-03-01T16:01:30;16.45;;;13.18;;
51010;SDS011;37038;50.182;8.624;2023-03-01T16:05:32;16.25;;;12.02;;
51010;SDS011;37038;50.182;8.624;2023-03-01T16:13:46;17.50;;;13.50;;
51010;SDS011;37038;50.182;8.624;2023-03-01T16:21:55;17.60;;;13.23;;
51010;SDS011;37038;50.182;8.624;2023-03-01T16:25:41;17.38;;;13.35;;
51010;SDS011;37038;50.182;8.624;2023-03-01T16:32:43;20.83;;;13.77;;
51010;SDS011;37038;50.182;8.624;2023-03-01T16:35:42;16.38;;;13.05;;
51010;SDS011;37038;50.182;8.624;2023-03-01T16:38:34;20.48;;;13.80;;
51010;SDS011;37038;50.182;8.624;2023-03-01T16:41:22;16.48;;;12.80;;
51010;SDS011;37038;50.182;8.624;2023-03-01T16:44:10;19.90;;;13.27;;
51010;SDS011;37038;50.182;8.624;2023-03-01T16:46:59;16.38;;;12.93;;
51010;SDS011;37038;50.182;8.624;2023-03-01T16:49:46;18.45;;;13.43;;
51010;SDS011;37038;50.182;8.624;2023-03-01T16:52:34;17.80;;;13.23;;
51010;SDS011;37038;50.182;8.624;2023-03-01T16:55:22;20.63;;;13.27;;
51010;SDS011;37038;50.182;8.624;2023-03-01T16:58:10;18.75;;;13.25;;
51010;SDS011;37038;50.182;8.624;2023-03-01T17:01:06;18.50;;;13.52;;
51010;SDS011;37038;50.182;8.624;2023-03-01T17:03:55;20.48;;;12.52;;
51010;SDS011;37038;50.182;8.624;2023-03-01T17:06:42;25.75;;;14.07;;
51010;SDS011;37038;50.182;8.624;2023-03-01T17:09:34;18.33;;;13.25;;
51010;SDS011;37038;50.182;8.624;2023-03-01T17:12:24;18.50;;;13.25;;
51010;SDS011;37038;50.182;8.624;2023-03-01T17:15:12;19.85;;;13.75;;
51010;SDS011;37038;50.182;8.624;2023-03-01T17:18:00;18.05;;;12.95;;
51010;SDS011;37038;50.182;8.624;2023-03-01T17:20:48;22.05;;;15.60;;
51010;SDS011;37038;50.182;8.624;2023-03-01T17:23:37;20.95;;;13.38;;
51010;SDS011;37038;50.182;8.624;2023-03-01T17:29:18;21.13;;;14.65;;
51010;SDS011;37038;50.182;8.624;2023-03-01T17:32:06;20.58;;;14.30;;
51010;SDS011;37038;50.182;8.624;2023-03-01T17:34:57;17.52;;;13.70;;
51010;SDS011;37038;50.182;8.624;2023-03-01T17:37:45;21.08;;;14.15;;
51010;SDS011;37038;50.182;8.624;2023-03-01T17:40:33;19.77;;;13.70;;
51010;SDS011;37038;50.182;8.624;2023-03-01T17:43:22;21.77;;;14.95;;
51010;SDS011;37038;50.182;8.624;2023-03-01T17:46:10;24.15;;;15.43;;
51010;SDS011;37038;50.182;8.624;2023-03-01T17:49:02;20.58;;;13.13;;
51010;SDS011;37038;50.182;8.624;2023-03-01T17:51:50;22.50;;;14.73;;
51010;SDS011;37038;50.182;8.624;2023-03-01T17:54:38;20.58;;;15.40;;
51010;SDS011;37038;50.182;8.624;2023-03-01T17:57:26;22.35;;;15.20;;
51010;SDS011;37038;50.182;8.624;2023-03-01T18:00:14;23.67;;;15.57;;
51010;SDS011;37038;50.182;8.624;2023-03-01T18:03:06;26.40;;;15.48;;
51010;SDS011;37038;50.182;8.624;2023-03-01T18:05:59;25.38;;;15.32;;
51010;SDS011;37038;50.182;8.624;2023-03-01T18:08:50;22.83;;;14.23;;
51010;SDS011;37038;50.182;8.624;2023-03-01T18:11:42;23.95;;;15.35;;
51010;SDS011;37038;50.182;8.624;2023-03-01T18:14:37;24.17;;;14.77;;
51010;SDS011;37038;50.182;8.624;2023-03-01T18:17:29;22.88;;;14.75;;
51010;SDS011;37038;50.182;8.624;2023-03-01T18:20:20;22.52;;;15.98;;
51010;SDS011;37038;50.182;8.624;2023-03-01T18:23:08;23.50;;;15.77;;
51010;SDS011;37038;50.182;8.624;2023-03-01T18:26:01;24.55;;;17.33;;
51010;SDS011;37038;50.182;8.624;2023-03-01T18:28:57;21.30;;;15.50;;
51010;SDS011;37038;50.182;8.624;2023-03-01T18:31:50;21.42;;;14.98;;
51010;SDS011;37038;50.182;8.624;2023-03-01T18:34:41;23.85;;;14.90;;
51010;SDS011;37038;50.182;8.624;2023-03-01T18:37:38;21.67;;;14.40;;
51010;SDS011;37038;50.182;8.624;2023-03-01T18:40:40;24.50;;;16.02;;
51010;SDS011;37038;50.182;8.624;2023-03-01T18:43:29;21.08;;;14.20;;
51010;SDS011;37038;50.182;8.624;2023-03-01T18:46:19;20.10;;;14.30;;
51010;SDS011;37038;50.182;8.624;2023-03-01T18:49:13;24.35;;;14.98;;
51010;SDS011;37038;50.182;8.624;2023-03-01T18:52:04;21.40;;;14.80;;
51010;SDS011;37038;50.182;8.624;2023-03-01T18:54:52;24.08;;;14.88;;
51010;SDS011;37038;50.182;8.624;2023-03-01T18:57:43;23.83;;;15.35;;
51010;SDS011;37038;50.182;8.624;2023-03-01T19:00:32;21.50;;;14.43;;
51010;SDS011;37038;50.182;8.624;2023-03-01T19:03:25;21.38;;;14.82;;
51010;SDS011;37038;50.182;8.624;2023-03-01T19:06:19;24.55;;;15.25;;
51010;SDS011;37038;50.182;8.624;2023-03-01T19:09:10;22.30;;;15.18;;
51010;SDS011;37038;50.182;8.624;2023-03-01T19:12:04;22.98;;;15.02;;